Terminal Aerodrome Forecast
Issued by NWS State College, PA

Current Version | Previous Version | Text Only | Print | Product List | Glossary On
Versions: 1 2 3 4 5 6 7 8 9 10 11 12 13 14 15 16 17 18 19 20 21 22 23 24 25 26 27 28 29 30 31 32 33
000
FTUS41 KCTP 281504 AAA
TAFMDT
TAF AMD
KMDT 281504Z 2815/2912 00000KT P6SM SCT120 OVC250
     FM282000 09005KT 5SM -SHRA BR OVC030
     FM290800 12006KT 2SM SHRA BR OVC015=

USA.gov is the U.S. government's official web portal to all federal, state and local government web resources and services.